Time;durP1;ratioP1;P1;durP2;ratioP2;P2;SDS_P1;SDS_P2;PMS_P1;PMS_P2;Temp;Humidity;BMP_temperature;BMP_pressure;BME280_temperature;BME280_humidity;BME280_pressure;Samples;Min_cycle;Max_cycle;Signal;HPM_P1;HPM_P2
2022/07/13 00:00:07;;;;;;;1.70;1.45;;;23.70;37.80;;;21.90;39.83;101712.00;12236668;19;20018;-78
2022/07/13 00:04:09;;;;;;;2.47;1.20;;;23.70;37.90;;;21.81;39.54;101700.34;12237119;19;20482;-79
2022/07/13 00:08:11;;;;;;;1.38;1.27;;;23.50;38.10;;;21.74;39.78;101697.41;12234727;19;21071;-79
2022/07/13 00:12:13;;;;;;;1.23;1.13;;;23.50;38.10;;;21.70;40.09;101690.66;12236953;19;20027;-78
2022/07/13 00:16:16;;;;;;;1.60;1.15;;;23.40;38.20;;;21.72;40.13;101698.53;12236809;19;20025;-78
2022/07/13 00:20:17;;;;;;;1.20;1.02;;;23.40;38.20;;;21.54;40.08;101679.69;12234956;19;20349;-79
2022/07/13 00:24:18;;;;;;;2.60;1.40;;;23.40;38.40;;;21.65;40.14;101687.56;12235783;19;20077;-78
2022/07/13 00:28:20;;;;;;;1.30;1.20;;;23.30;38.40;;;21.62;40.36;101685.16;12236827;19;20018;-78
2022/07/13 00:32:22;;;;;;;0.90;0.90;;;23.20;38.40;;;21.41;40.32;101653.31;12232376;19;20026;-78
2022/07/13 00:36:24;;;;;;;1.48;1.35;;;23.30;38.40;;;21.45;40.32;101668.03;12237525;19;20018;-78
2022/07/13 00:40:26;;;;;;;1.25;1.15;;;23.20;38.50;;;21.47;40.59;101676.72;12234456;19;20043;-78
2022/07/13 00:44:28;;;;;;;1.08;1.08;;;23.10;38.60;;;21.38;40.69;101672.19;12236653;19;20026;-78
2022/07/13 00:48:30;;;;;;;1.20;1.13;;;23.10;38.60;;;21.37;40.55;101667.81;12242238;19;20018;-78
2022/07/13 00:52:36;;;;;;;1.30;1.20;;;23.30;38.70;;;21.33;40.79;101674.34;12242999;19;20046;-78
2022/07/13 00:56:39;;;;;;;1.10;1.00;;;23.40;38.70;;;21.21;40.66;101657.66;12246748;19;20084;-78
2022/07/13 01:00:40;;;;;;;2.45;1.13;;;22.90;38.60;;;21.10;40.80;101641.81;12242833;19;20015;-78
2022/07/13 01:04:42;;;;;;;1.70;1.60;;;22.90;38.80;;;21.25;40.77;101674.16;12246599;19;20101;-79
2022/07/13 01:08:44;;;;;;;1.25;1.15;;;22.80;38.80;;;21.13;40.59;101668.94;12246992;19;20099;-78
2022/07/13 01:12:46;;;;;;;1.25;1.10;;;22.80;38.80;;;21.19;41.01;101686.16;12226139;19;20480;-79
2022/07/13 01:16:48;;;;;;;1.15;1.05;;;22.80;39.00;;;21.13;40.96;101671.59;12247331;19;20048;-78
2022/07/13 01:20:50;;;;;;;1.77;1.05;;;23.00;39.00;;;21.13;41.08;101663.63;12243453;19;20011;-78
2022/07/13 01:24:54;;;;;;;1.48;1.38;;;22.70;39.10;;;21.10;41.13;101655.09;12248304;19;20014;-78
2022/07/13 01:28:55;;;;;;;8.68;1.48;;;22.70;39.30;;;20.83;41.31;101608.66;12244953;19;20010;-78
2022/07/13 01:32:57;;;;;;;1.23;1.13;;;22.70;39.30;;;20.91;41.29;101629.25;12240835;19;20015;-79
2022/07/13 01:37:00;;;;;;;1.33;1.23;;;22.70;39.30;;;20.95;41.33;101647.44;12247046;19;20372;-78
2022/07/13 01:41:03;;;;;;;1.30;1.20;;;22.60;39.40;;;20.88;41.77;101638.31;12243559;19;20018;-78
2022/07/13 01:45:08;;;;;;;2.63;1.17;;;22.60;39.60;;;20.92;41.76;101642.38;12247629;19;20026;-78
2022/07/13 01:49:10;;;;;;;1.43;1.23;;;22.60;39.70;;;20.90;41.84;101631.06;12242913;19;20022;-79
2022/07/13 01:53:13;;;;;;;1.23;1.10;;;22.60;39.60;;;20.92;41.76;101626.44;12242226;19;20103;-78
2022/07/13 01:57:14;;;;;;;1.13;1.10;;;22.90;39.90;;;20.97;41.91;101631.38;12246389;19;20043;-79
2022/07/13 02:01:16;;;;;;;1.17;1.13;;;22.60;39.80;;;21.06;41.79;101632.41;12237691;19;20018;-78
2022/07/13 02:05:20;;;;;;;1.23;1.13;;;22.60;39.90;;;20.99;42.00;101627.63;12246023;19;20027;-78
2022/07/13 02:09:22;;;;;;;1.27;1.20;;;22.60;40.00;;;20.99;41.76;101637.41;12242628;19;20018;-78
2022/07/13 02:13:24;;;;;;;1.33;1.23;;;22.70;40.00;;;21.10;42.08;101650.59;12241030;19;20505;-78
2022/07/13 02:17:27;;;;;;;1.48;1.33;;;22.70;40.10;;;20.99;42.17;101622.31;12242082;19;20371;-78
2022/07/13 02:21:29;;;;;;;1.60;1.20;;;22.70;40.10;;;20.94;42.18;101613.03;12238825;19;20360;-78
2022/07/13 02:25:33;;;;;;;2.47;1.08;;;22.70;40.20;;;20.98;42.12;101611.78;12244295;19;20011;-79
2022/07/13 02:29:35;;;;;;;1.33;1.17;;;22.70;40.00;;;20.97;42.11;101612.78;12240026;19;20344;-78
2022/07/13 02:33:37;;;;;;;1.45;1.20;;;22.70;40.00;;;20.95;42.23;101609.41;12243783;19;20373;-78
2022/07/13 02:37:40;;;;;;;1.65;1.35;;;22.60;39.90;;;20.78;42.37;101593.09;12240717;19;20011;-78
2022/07/13 02:41:41;;;;;;;1.20;1.10;;;22.60;39.90;;;20.82;42.65;101603.44;12240732;19;20456;-78
2022/07/13 02:45:43;;;;;;;1.25;1.15;;;22.50;40.00;;;20.60;42.60;101584.03;12241625;19;20026;-78
2022/07/13 02:49:45;;;;;;;1.23;1.13;;;22.50;40.10;;;20.70;42.55;101598.22;12240559;19;20504;-78
2022/07/13 02:53:47;;;;;;;1.48;1.15;;;22.70;40.20;;;20.85;42.41;101619.97;12241931;19;20112;-78
2022/07/13 02:57:49;;;;;;;1.65;1.25;;;22.60;40.20;;;20.86;42.49;101626.97;12245054;19;20069;-78
2022/07/13 03:01:51;;;;;;;1.40;1.30;;;22.50;40.40;;;20.72;42.77;101606.06;12237516;19;20043;-78
2022/07/13 03:05:53;;;;;;;1.77;1.20;;;22.50;40.40;;;20.86;42.75;101612.84;12244376;19;20010;-78
2022/07/13 03:09:57;;;;;;;1.15;0.95;;;22.50;40.40;;;20.81;42.62;101604.44;12236498;19;20373;-78
2022/07/13 03:14:01;;;;;;;1.40;1.30;;;22.50;40.40;;;20.88;42.60;101621.53;12241396;19;20018;-78
2022/07/13 03:18:07;;;;;;;1.67;1.40;;;22.60;40.40;;;20.77;42.67;101602.03;12242828;19;20024;-78
2022/07/13 03:22:09;;;;;;;1.27;1.08;;;22.50;40.40;;;20.69;42.93;101593.88;12234539;19;20480;-78
2022/07/13 03:26:12;;;;;;;2.00;1.50;;;22.50;40.30;;;20.72;42.70;101624.63;12243058;19;20030;-79
2022/07/13 03:30:15;;;;;;;5.32;1.38;;;22.50;40.40;;;20.65;42.96;101608.38;12239873;19;20490;-78
2022/07/13 03:34:18;;;;;;;1.35;1.25;;;22.50;40.60;;;20.52;43.25;101576.69;12242702;19;20044;-79
2022/07/13 03:38:21;;;;;;;1.55;1.35;;;22.40;40.50;;;20.35;43.30;101553.38;12240434;19;20036;-78
2022/07/13 03:42:23;;;;;;;2.03;1.50;;;22.70;40.80;;;20.68;43.54;101602.78;12238374;19;20040;-79
2022/07/13 03:46:26;;;;;;;2.03;1.63;;;22.40;40.50;;;20.67;43.52;101595.81;12241001;19;20010;-79
2022/07/13 03:50:28;;;;;;;2.15;1.10;;;22.40;40.70;;;20.56;43.28;101566.69;12236392;19;20022;-78
2022/07/13 03:54:31;;;;;;;1.17;0.98;;;22.40;40.80;;;20.65;43.32;101587.13;12241469;19;20363;-78
2022/07/13 03:58:33;;;;;;;2.08;1.52;;;22.40;40.80;;;20.69;43.71;101585.91;12238676;19;20493;-79
2022/07/13 04:02:34;;;;;;;1.27;1.17;;;22.40;41.10;;;20.63;43.33;101562.56;12237975;19;20086;-78
2022/07/13 04:06:37;;;;;;;2.58;1.10;;;22.40;41.10;;;20.68;43.24;101568.28;12217869;19;20160;-78
2022/07/13 04:10:39;;;;;;;1.77;1.30;;;22.40;41.10;;;20.61;43.80;101558.34;12229946;19;20014;-77
2022/07/13 04:14:41;;;;;;;1.73;1.33;;;22.50;41.30;;;20.71;43.80;101573.38;12220114;19;20039;-77
2022/07/13 04:18:43;;;;;;;1.30;1.20;;;22.40;41.10;;;20.69;43.83;101583.28;12235123;19;20026;-78
2022/07/13 04:22:44;;;;;;;1.25;1.13;;;22.50;41.20;;;20.72;43.82;101593.63;12225255;19;20039;-79
2022/07/13 04:26:47;;;;;;;1.13;1.02;;;22.40;41.20;;;20.68;44.11;101576.25;12235418;19;20022;-79
2022/07/13 04:30:53;;;;;;;1.65;1.02;;;22.50;41.40;;;20.75;44.01;101572.13;12211997;19;20014;-78
2022/07/13 04:34:57;;;;;;;1.42;1.15;;;22.50;41.30;;;20.85;43.78;101581.97;12210226;19;20086;-78
2022/07/13 04:39:01;;;;;;;1.52;0.90;;;22.50;41.40;;;20.72;44.25;101552.97;12222521;19;20460;-79
2022/07/13 04:43:02;;;;;;;0.93;0.93;;;22.50;41.40;;;20.87;43.84;101558.78;12217714;19;20026;-79
2022/07/13 04:47:04;;;;;;;0.95;0.95;;;22.60;41.50;;;20.93;44.05;101571.53;12224776;19;20106;-79
2022/07/13 04:51:05;;;;;;;1.55;1.10;;;22.60;41.40;;;21.02;44.13;101591.97;12221979;19;20101;-79
2022/07/13 04:55:09;;;;;;;1.17;1.00;;;22.60;41.30;;;20.98;44.30;101578.13;12224296;19;20043;-79
2022/07/13 04:59:12;;;;;;;2.33;1.20;;;22.70;41.50;;;20.94;44.42;101567.91;12222765;19;20399;-79
2022/07/13 05:03:13;;;;;;;1.20;1.10;;;22.80;41.60;;;21.13;44.12;101593.72;12225053;19;20039;-79
2022/07/13 05:07:15;;;;;;;1.10;1.00;;;22.70;41.60;;;21.04;44.10;101565.31;12222894;19;20019;-79
2022/07/13 05:11:17;;;;;;;1.50;1.10;;;22.70;41.60;;;21.12;44.24;101582.25;12220400;19;20019;-78
2022/07/13 05:15:20;;;;;;;1.10;1.00;;;22.80;41.60;;;21.24;44.09;101579.50;12221565;19;20010;-79
2022/07/13 05:19:22;;;;;;;0.98;0.82;;;22.90;41.70;;;21.25;44.18;101562.59;12223624;19;20022;-78
2022/07/13 05:23:25;;;;;;;4.05;0.90;;;22.90;41.70;;;21.35;44.63;101568.78;12223427;19;20026;-79
2022/07/13 05:27:27;;;;;;;1.00;0.88;;;23.00;41.90;;;21.45;44.60;101584.81;12217977;19;20026;-78
2022/07/13 05:31:31;;;;;;;0.82;0.82;;;23.00;41.90;;;21.35;44.65;101560.81;12219701;19;20018;-79
2022/07/13 05:35:35;;;;;;;3.55;1.83;;;23.10;42.10;;;21.48;44.73;101568.59;12234256;19;20035;-79
2022/07/13 05:39:37;;;;;;;2.03;0.75;;;23.10;42.10;;;21.56;44.65;101568.75;12234807;19;20188;-79
2022/07/13 05:43:41;;;;;;;1.67;1.00;;;23.20;42.30;;;21.58;44.70;101559.66;12232774;19;20011;-79
2022/07/13 05:47:48;;;;;;;1.23;1.00;;;23.20;42.20;;;21.58;44.98;101557.00;12235398;19;20025;-78
2022/07/13 05:51:54;;;;;;;1.70;1.10;;;23.30;41.90;;;21.67;44.30;101554.50;12229751;19;20018;-79
2022/07/13 05:55:56;;;;;;;1.38;1.27;;;23.30;42.10;;;21.76;44.70;101559.81;12235578;19;20014;-79
2022/07/13 05:59:58;;;;;;;1.00;1.00;;;23.40;42.10;;;21.86;44.81;101557.19;12231523;19;20390;-80
2022/07/13 06:04:00;;;;;;;3.05;0.98;;;23.50;42.30;;;21.97;44.75;101559.72;12242232;19;20021;-79
2022/07/13 06:08:01;;;;;;;1.17;1.10;;;23.50;42.30;;;22.02;44.69;101568.13;12240469;19;20029;-78
2022/07/13 06:12:03;;;;;;;1.77;1.17;;;23.60;42.30;;;21.91;44.49;101538.19;12239032;19;20011;-79
2022/07/13 06:16:05;;;;;;;0.82;0.82;;;23.70;42.30;;;22.09;45.14;101563.94;12240191;19;20019;-78
2022/07/13 06:20:08;;;;;;;1.73;0.98;;;23.80;42.40;;;22.20;44.73;101580.78;12240752;19;20035;-79
2022/07/13 06:24:09;;;;;;;4.20;0.93;;;23.80;42.30;;;22.24;44.69;101566.22;12239382;19;20014;-79
2022/07/13 06:28:11;;;;;;;0.80;0.80;;;23.90;42.50;;;22.24;45.11;101560.88;12240358;19;20054;-79
2022/07/13 06:32:13;;;;;;;2.45;1.10;;;23.90;42.50;;;22.33;45.12;101568.03;12238181;19;20018;-78
2022/07/13 06:36:14;;;;;;;0.95;0.95;;;24.00;43.00;;;22.23;45.28;101548.59;12237572;19;20496;-82
2022/07/13 06:40:16;;;;;;;1.00;1.00;;;24.10;42.70;;;22.35;45.11;101542.13;12238649;19;20010;-80
2022/07/13 06:44:18;;;;;;;1.65;0.80;;;24.10;42.50;;;22.29;45.08;101524.06;12230995;19;20507;-80
2022/07/13 06:48:20;;;;;;;0.98;0.82;;;24.20;42.50;;;22.60;44.82;101553.16;12237770;19;20339;-79
2022/07/13 06:52:21;;;;;;;0.80;0.80;;;24.20;42.60;;;22.66;44.91;101539.28;12232807;19;20035;-79
2022/07/13 06:56:22;;;;;;;1.00;0.90;;;24.30;42.50;;;22.87;45.13;101558.56;12237574;19;20029;-79
2022/07/13 07:00:24;;;;;;;1.35;1.00;;;24.40;42.70;;;22.94;44.87;101553.50;12233213;19;20018;-80
2022/07/13 07:04:26;;;;;;;2.05;0.80;;;24.50;42.70;;;22.78;44.78;101511.47;12237814;19;20015;-80
2022/07/13 07:08:28;;;;;;;1.02;0.73;;;24.60;42.70;;;23.17;44.98;101560.19;12234405;19;20014;-80
2022/07/13 07:12:29;;;;;;;1.42;0.98;;;24.70;42.70;;;23.17;44.86;101528.19;12235491;19;20014;-79
2022/07/13 07:16:31;;;;;;;1.00;0.80;;;25.10;42.80;;;23.42;45.06;101545.31;12237299;19;20031;-80
2022/07/13 07:20:33;;;;;;;1.73;0.90;;;25.00;42.90;;;23.60;44.87;101544.50;12234989;19;20059;-80
2022/07/13 07:24:35;;;;;;;0.80;0.80;;;25.10;42.40;;;23.64;44.86;101511.22;12234767;19;20006;-81
2022/07/13 07:28:36;;;;;;;0.90;0.90;;;25.20;42.60;;;23.90;45.02;101524.69;12231058;19;20031;-80
2022/07/13 07:32:39;;;;;;;4.15;1.02;;;25.30;42.80;;;23.86;44.88;101496.63;12199069;19;20015;-80
2022/07/13 07:36:41;;;;;;;0.98;0.98;;;25.40;42.50;;;24.16;44.87;101518.56;12234562;19;20019;-80
2022/07/13 07:40:42;;;;;;;1.13;0.88;;;25.60;42.60;;;24.23;44.89;101509.81;12193461;19;20014;-80
2022/07/13 07:44:44;;;;;;;0.88;0.88;;;25.80;42.30;;;24.34;44.95;101500.69;12210330;19;20044;-80
2022/07/13 07:48:46;;;;;;;0.90;0.90;;;25.80;42.40;;;24.42;44.91;101498.09;12225672;19;20365;-80
2022/07/13 07:52:47;;;;;;;1.23;0.77;;;26.00;42.40;;;24.58;44.83;101493.91;12225440;19;20037;-79
2022/07/13 07:56:49;;;;;;;1.15;0.88;;;26.10;42.20;;;24.48;44.80;101464.59;12227089;19;20018;-80
2022/07/13 08:00:50;;;;;;;0.75;0.75;;;26.10;41.90;;;24.83;43.99;101506.38;12224395;19;20030;-80
2022/07/13 08:04:52;;;;;;;0.95;0.95;;;26.30;41.60;;;25.04;44.44;101511.34;12215049;19;20022;-79
2022/07/13 08:08:53;;;;;;;1.13;0.95;;;26.40;41.80;;;25.09;44.10;101500.16;12207253;19;20023;-78
2022/07/13 08:12:58;;;;;;;1.42;0.90;;;26.50;42.10;;;25.27;44.29;101503.59;12223999;19;20011;-80
2022/07/13 08:17:00;;;;;;;1.58;1.20;;;26.70;42.10;;;25.46;43.87;101498.97;12209176;19;20078;-79
2022/07/13 08:21:02;;;;;;;4.03;1.30;;;26.90;41.70;;;25.64;44.05;101498.84;12222171;19;20488;-78
2022/07/13 08:25:04;;;;;;;1.08;0.98;;;27.10;41.80;;;25.79;44.00;101500.72;12211696;19;20043;-80
2022/07/13 08:29:05;;;;;;;1.02;0.95;;;27.20;41.50;;;25.93;43.42;101493.91;12208459;19;20022;-79
2022/07/13 08:33:07;;;;;;;1.02;1.02;;;27.40;41.10;;;25.98;43.27;101474.66;12218234;19;20019;-79
2022/07/13 08:41:30;;;;;;;1.30;1.17;;;27.60;40.90;;;26.34;43.44;101485.84;12229550;19;20021;-77
2022/07/13 08:45:33;;;;;;;0.95;0.95;;;27.80;40.90;;;26.45;43.30;101481.97;12231963;19;20022;-78
2022/07/13 08:49:34;;;;;;;0.90;0.90;;;28.00;40.40;;;26.50;43.28;101482.28;12232528;19;20007;-77
2022/07/13 08:53:36;;;;;;;6.10;1.25;;;28.10;40.60;;;26.63;42.85;101476.44;12229331;19;20011;-77
2022/07/13 08:57:39;;;;;;;12.93;1.13;;;28.10;40.60;;;26.81;42.64;101486.91;12233030;19;20014;-78
2022/07/13 09:01:41;;;;;;;1.77;0.80;;;28.30;40.10;;;26.93;42.71;101464.09;12227258;19;20014;-79
2022/07/13 09:05:43;;;;;;;0.80;0.80;;;28.30;39.80;;;27.10;42.40;101449.59;12231957;19;20010;-78
2022/07/13 09:09:45;;;;;;;3.42;1.15;;;28.50;39.90;;;27.08;42.34;101429.34;12241179;19;20030;-79
2022/07/13 09:13:49;;;;;;;0.73;0.73;;;28.60;39.70;;;27.44;42.00;101461.84;12239681;19;20031;-79
2022/07/13 09:17:51;;;;;;;0.77;0.70;;;28.90;39.60;;;27.47;41.69;101433.84;12243301;19;20496;-78
2022/07/13 09:22:08;;;;;;;1.35;0.90;;;28.90;38.90;;;27.75;41.26;101452.91;12241386;19;20424;-77
2022/07/13 09:26:10;;;;;;;0.82;0.77;;;29.10;38.80;;;27.82;41.18;101461.13;12243373;19;20018;-77
2022/07/13 09:30:26;;;;;;;1.08;0.80;;;29.30;38.70;;;27.87;40.75;101429.16;12241931;19;20039;-77
2022/07/13 09:34:53;;;;;;;0.82;0.80;;;29.30;38.10;;;28.11;40.75;101442.41;12242456;19;20618;-78
2022/07/13 09:38:55;;;;;;;0.90;0.65;;;29.50;38.30;;;28.43;40.79;101446.59;12241577;19;20039;-77
2022/07/13 09:47:20;;;;;;;0.70;0.70;;;29.90;38.10;;;28.85;39.96;101423.59;12241801;19;20353;-78
2022/07/13 09:51:28;;;;;;;0.90;0.90;;;30.20;37.60;;;29.02;40.08;101418.81;12237858;19;20032;-78
2022/07/13 09:55:33;;;;;;;0.75;0.70;;;30.30;38.00;;;29.22;40.11;101423.63;12241148;19;20003;-77
2022/07/13 09:59:36;;;;;;;;;;;30.50;37.70;;;29.42;40.20;101423.84;12241956;19;20048;-77
2022/07/13 10:03:40;;;;;;;5.07;0.70;;;30.70;38.60;;;29.50;39.65;101438.00;12243310;19;19918;-77
2022/07/13 10:07:43;;;;;;;0.60;0.60;;;30.80;37.70;;;29.60;39.38;101426.06;12241907;19;20014;-77
2022/07/13 10:11:46;;;;;;;0.85;0.70;;;31.00;37.30;;;29.68;39.33;101417.91;12237967;19;20029;-76
2022/07/13 10:15:48;;;;;;;0.50;0.50;;;31.10;37.30;;;29.58;38.90;101393.97;12242345;19;20034;-77
2022/07/13 10:20:16;;;;;;;0.50;0.50;;;31.20;37.10;;;29.80;38.59;101418.22;12235500;19;20010;-78
2022/07/13 10:24:18;;;;;;;0.60;0.60;;;31.20;36.60;;;30.02;38.65;101408.22;12240999;19;20002;-77
2022/07/13 10:28:19;;;;;;;0.40;0.40;;;31.30;36.90;;;30.08;38.20;101407.44;12238407;19;20006;-78
2022/07/13 10:32:30;;;;;;;0.98;0.63;;;31.40;36.50;;;30.26;37.86;101421.25;12237379;19;20014;-77
2022/07/13 10:36:56;;;;;;;0.60;0.60;;;31.60;36.20;;;30.35;37.73;101420.09;12239352;19;20082;-77
2022/07/13 10:41:19;;;;;;;0.63;0.63;;;31.70;36.50;;;30.40;37.54;101408.69;12237355;19;20455;-77
2022/07/13 10:45:38;;;;;;;1.42;0.90;;;31.70;36.20;;;30.53;37.67;101391.75;12239341;19;20026;-78
2022/07/13 10:49:47;;;;;;;0.57;0.57;;;31.80;36.00;;;30.69;37.38;101396.81;12238798;19;20011;-78
2022/07/13 10:53:52;;;;;;;0.70;0.50;;;32.00;35.60;;;30.86;37.09;101406.22;12235674;19;20018;-78
2022/07/13 10:57:53;;;;;;;2.15;0.50;;;32.10;35.00;;;30.87;36.51;101369.31;12240270;19;20096;-77
2022/07/13 11:01:55;;;;;;;0.50;0.50;;;32.20;35.00;;;31.05;36.60;101380.34;12235778;19;20014;-77
2022/07/13 11:06:15;;;;;;;0.50;0.50;;;32.30;35.20;;;31.19;36.03;101386.63;12240078;19;20018;-77
2022/07/13 11:10:30;;;;;;;0.60;0.60;;;32.50;34.80;;;31.26;35.86;101405.50;12237965;19;20011;-77
2022/07/13 11:14:41;;;;;;;3.28;1.10;;;32.60;34.20;;;31.20;35.67;101392.84;12237844;19;20024;-77
2022/07/13 11:18:53;;;;;;;5.07;0.80;;;32.60;34.10;;;30.98;35.56;101368.72;12228350;19;20388;-77
2022/07/13 11:27:26;;;;;;;0.80;0.80;;;32.60;34.60;;;31.13;35.81;101379.31;12234226;19;20010;-77
2022/07/13 11:31:28;;;;;;;0.70;0.70;;;32.60;34.50;;;31.02;35.75;101366.44;12229569;19;20400;-79
2022/07/13 11:35:30;;;;;;;0.60;0.60;;;32.60;34.40;;;31.03;35.69;101379.75;12232117;19;20352;-77
2022/07/13 11:39:36;;;;;;;0.80;0.80;;;32.60;33.90;;;30.96;35.24;101376.19;12233592;19;20019;-78
2022/07/13 11:43:48;;;;;;;0.80;0.80;;;32.50;33.60;;;30.73;35.07;101352.25;12231681;19;20019;-77
2022/07/13 11:47:50;;;;;;;0.63;0.63;;;32.40;33.60;;;30.72;35.15;101361.34;12232521;19;20027;-77
2022/07/13 11:51:52;;;;;;;0.80;0.80;;;32.30;33.70;;;30.79;35.22;101358.69;12229224;19;20018;-77
2022/07/13 11:56:06;;;;;;;1.48;0.63;;;32.30;33.60;;;30.74;34.71;101353.06;12232592;19;20345;-77
2022/07/13 12:00:09;;;;;;;0.70;0.70;;;32.30;33.50;;;30.69;35.09;101344.75;12231053;19;20029;-77
2022/07/13 12:04:22;;;;;;;0.90;0.70;;;32.20;33.60;;;30.79;34.25;101340.63;12228589;19;20357;-77
2022/07/13 12:08:24;;;;;;;0.52;0.52;;;32.30;33.60;;;30.68;34.96;101321.50;12232101;19;20021;-77
2022/07/13 12:12:30;;;;;;;0.70;0.70;;;32.20;33.90;;;30.85;34.74;101334.44;12229006;19;20119;-78
2022/07/13 12:16:33;;;;;;;0.70;0.70;;;32.20;33.70;;;30.82;34.69;101315.16;12232540;19;20344;-78
2022/07/13 12:20:34;;;;;;;0.60;0.60;;;32.30;33.40;;;30.98;34.45;101330.13;12230944;19;20014;-77
2022/07/13 12:24:44;;;;;;;0.70;0.70;;;32.30;33.60;;;31.03;34.27;101314.16;12228362;19;20041;-77
2022/07/13 12:28:46;;;;;;;0.88;0.68;;;32.30;33.40;;;31.00;34.27;101301.06;12226907;19;20505;-78
2022/07/13 12:33:14;;;;;;;2.90;0.80;;;32.30;33.30;;;31.11;33.86;101299.63;12219005;19;20015;-77
2022/07/13 12:37:36;;;;;;;0.75;0.75;;;32.40;33.30;;;31.18;33.30;101306.69;12221372;19;20021;-77
2022/07/13 12:41:42;;;;;;;0.80;0.80;;;32.70;33.00;;;30.99;33.76;101281.34;12221765;19;20019;-78
2022/07/13 12:45:49;;;;;;;0.95;0.68;;;32.50;32.60;;;30.89;33.53;101261.22;12234374;19;20476;-77
2022/07/13 12:49:51;;;;;;;1.05;0.80;;;32.50;32.60;;;31.02;33.25;101286.31;12233468;19;20053;-77
2022/07/13 12:53:58;;;;;;;1.05;0.80;;;32.50;32.60;;;31.05;33.50;101285.91;12230662;19;20090;-78
2022/07/13 12:58:00;;;;;;;0.80;0.80;;;32.50;32.70;;;31.16;33.25;101286.34;12223860;19;20006;-77
2022/07/13 13:02:02;;;;;;;0.75;0.73;;;32.50;32.80;;;31.11;33.30;101275.34;12230735;19;20021;-77
2022/07/13 13:06:04;;;;;;;0.90;0.80;;;32.50;32.60;;;31.01;32.94;101260.41;12237962;19;20647;-77
2022/07/13 13:10:08;;;;;;;0.60;0.60;;;32.50;32.50;;;31.08;32.67;101260.38;12237516;19;20369;-77
2022/07/13 13:14:11;;;;;;;3.83;0.57;;;32.50;31.90;;;31.06;32.46;101259.78;12242754;19;20015;-78
2022/07/13 13:18:13;;;;;;;0.60;0.60;;;32.50;31.80;;;31.00;32.48;101239.00;12242138;19;20088;-77
2022/07/13 13:22:15;;;;;;;0.60;0.60;;;32.60;31.70;;;31.11;32.54;101257.28;12235528;19;20010;-78
2022/07/13 13:26:17;;;;;;;0.70;0.70;;;32.50;31.80;;;31.10;32.29;101242.13;12240421;19;20036;-77
2022/07/13 13:34:39;;;;;;;0.70;0.70;;;32.50;31.60;;;31.16;31.89;101230.50;12208034;19;20021;-77
2022/07/13 13:38:41;;;;;;;1.00;0.93;;;32.50;31.60;;;31.26;32.09;101230.91;12222377;19;20487;-77
2022/07/13 13:42:43;;;;;;;1.25;0.80;;;32.60;31.40;;;31.31;31.79;101214.09;12217561;19;20033;-77
2022/07/13 13:46:45;;;;;;;1.85;0.80;;;32.60;31.50;;;31.45;31.83;101226.56;12224057;19;20645;-77
2022/07/13 13:50:47;;;;;;;1.05;0.80;;;32.70;31.60;;;31.52;31.26;101227.38;12218590;19;20021;-78
2022/07/13 13:54:48;;;;;;;2.17;0.70;;;32.80;31.00;;;31.39;31.16;101204.97;12218835;19;20018;-77
2022/07/13 13:58:50;;;;;;;1.05;0.90;;;32.90;30.90;;;31.40;31.17;101204.75;12225363;19;20014;-77
2022/07/13 14:02:52;;;;;;;0.77;0.60;;;32.90;30.50;;;31.50;31.05;101223.22;12219463;19;20014;-77
2022/07/13 14:06:53;;;;;;;0.70;0.70;;;32.80;30.40;;;31.49;30.59;101213.47;12224746;19;20515;-76
2022/07/13 14:10:55;;;;;;;0.80;0.80;;;32.80;30.30;;;31.44;30.48;101202.47;12223842;19;20467;-77
2022/07/13 14:14:56;;;;;;;2.30;0.60;;;32.80;30.40;;;31.46;30.51;101214.72;12224608;19;20099;-77
2022/07/13 14:18:58;;;;;;;0.75;0.60;;;32.90;30.10;;;31.07;30.38;101154.34;12225736;19;20027;-77
2022/07/13 14:23:00;;;;;;;0.60;0.60;;;32.80;30.20;;;31.34;30.25;101191.25;12222194;19;20041;-77
2022/07/13 14:27:02;;;;;;;0.77;0.70;;;32.80;30.20;;;31.28;30.15;101176.72;12224062;19;20033;-77
2022/07/13 14:31:04;;;;;;;1.13;0.60;;;32.70;30.10;;;31.40;30.42;101191.25;12221299;19;20271;-77
2022/07/13 14:35:09;;;;;;;0.50;0.50;;;32.70;30.30;;;31.34;29.72;101170.47;12219017;19;20007;-77
2022/07/13 14:39:13;;;;;;;0.70;0.52;;;32.70;30.00;;;31.46;29.72;101176.06;12209725;19;20018;-78
2022/07/13 14:43:15;;;;;;;0.70;0.70;;;32.80;30.20;;;31.50;29.88;101182.72;12209798;19;20014;-79
2022/07/13 14:47:17;;;;;;;1.23;0.70;;;32.80;30.20;;;31.51;29.80;101170.88;12213166;19;20561;-78
2022/07/13 14:51:18;;;;;;;1.05;0.75;;;32.80;30.30;;;31.48;29.94;101168.59;12217778;19;20978;-78
2022/07/13 14:55:20;;;;;;;0.52;0.52;;;32.90;30.40;;;31.55;29.87;101165.91;12218821;19;20010;-78
2022/07/13 14:59:23;;;;;;;1.58;0.98;;;32.90;30.10;;;31.57;29.85;101159.25;12216272;19;20010;-78
2022/07/13 15:03:25;;;;;;;0.98;0.95;;;32.90;30.20;;;31.67;29.99;101169.56;12221940;19;20007;-77
2022/07/13 15:07:27;;;;;;;0.70;0.70;;;32.90;30.30;;;31.67;29.72;101154.19;12220724;19;20543;-79
2022/07/13 15:11:30;;;;;;;1.20;0.80;;;33.00;30.20;;;31.68;29.85;101149.66;12220330;19;20018;-77
2022/07/13 15:15:32;;;;;;;0.70;0.60;;;32.90;30.20;;;31.72;29.64;101151.69;12221605;19;20043;-77
2022/07/13 15:19:33;;;;;;;4.78;0.70;;;33.00;30.30;;;31.53;29.68;101117.50;12223031;19;20021;-76
2022/07/13 15:23:35;;;;;;;0.95;0.65;;;33.10;30.20;;;31.74;29.33;101132.56;12221549;19;20015;-77
2022/07/13 15:27:37;;;;;;;1.27;0.95;;;33.10;30.10;;;31.86;29.32;101122.75;12223302;19;20018;-77
2022/07/13 15:31:38;;;;;;;0.90;0.90;;;33.10;30.20;;;31.99;29.23;101126.47;12218856;19;20484;-76
2022/07/13 15:35:40;;;;;;;0.93;0.70;;;33.20;30.00;;;32.11;29.06;101122.03;12220749;19;20014;-77
2022/07/13 15:39:42;;;;;;;0.80;0.80;;;33.30;30.20;;;32.24;29.13;101118.38;12222656;19;20459;-77
2022/07/13 15:43:43;;;;;;;2.53;0.70;;;33.40;29.90;;;32.31;29.07;101109.19;12220186;19;20035;-76
2022/07/13 15:47:45;;;;;;;0.73;0.73;;;33.50;30.00;;;32.42;28.81;101104.94;12220881;19;20024;-76
2022/07/13 15:51:46;;;;;;;0.80;0.80;;;33.50;29.80;;;32.46;28.76;101098.06;12219645;19;20010;-77
2022/07/13 15:55:48;;;;;;;0.70;0.70;;;33.60;29.90;;;32.55;28.50;101112.16;12223488;19;20025;-77
2022/07/13 15:59:49;;;;;;;0.60;0.60;;;33.70;29.90;;;32.65;28.88;101106.25;12219813;19;20015;-77
2022/07/13 16:03:51;;;;;;;1.67;0.85;;;33.80;29.70;;;32.70;28.37;101095.59;12226311;19;20035;-77
2022/07/13 16:07:53;;;;;;;1.02;0.80;;;33.90;29.70;;;32.51;28.62;101068.50;12227280;19;20721;-77
2022/07/13 16:11:54;;;;;;;0.90;0.90;;;33.90;29.80;;;32.76;28.40;101092.00;12223471;19;20031;-77
2022/07/13 16:15:56;;;;;;;1.55;0.80;;;33.90;29.70;;;32.73;28.33;101087.88;12223423;19;20039;-77
2022/07/13 16:19:58;;;;;;;1.05;0.90;;;34.00;29.60;;;32.66;28.50;101075.47;12223646;19;20025;-76
2022/07/13 16:24:00;;;;;;;0.73;0.73;;;34.00;29.70;;;32.72;28.12;101083.50;12225571;19;20014;-77
2022/07/13 16:28:02;;;;;;;1.10;1.00;;;34.00;29.70;;;32.68;28.12;101078.78;12224961;19;20078;-76
2022/07/13 16:32:05;;;;;;;0.85;0.73;;;34.00;29.80;;;32.74;28.26;101069.75;12206661;19;20377;-77
2022/07/13 16:36:07;;;;;;;1.38;0.80;;;34.00;29.90;;;32.68;28.42;101060.66;12222135;19;20695;-77
2022/07/13 16:40:09;;;;;;;1.17;1.08;;;34.00;29.80;;;32.65;28.51;101060.25;12217653;19;20078;-76
2022/07/13 16:44:10;;;;;;;3.22;0.82;;;34.00;29.90;;;32.69;28.32;101065.00;12214673;19;20007;-76
2022/07/13 16:48:12;;;;;;;0.65;0.65;;;34.00;29.80;;;32.54;28.49;101046.44;12224947;19;20014;-76
2022/07/13 16:52:20;;;;;;;3.10;0.93;;;33.90;29.80;;;32.44;28.72;101054.19;12219054;19;20025;-76
2022/07/13 16:56:22;;;;;;;3.95;1.38;;;33.90;29.90;;;32.38;28.33;101065.91;12221308;19;20015;-76